createdAt,value
2022-12-08T00:00:11.539Z,100193.50
2022-12-08T00:02:38.480Z,100213.84
2022-12-08T00:05:24.219Z,100210.78
2022-12-08T00:08:09.510Z,100215.75
2022-12-08T00:10:51.799Z,100211.59
2022-12-08T00:13:18.618Z,100215.50
2022-12-08T00:15:45.407Z,100211.59
2022-12-08T00:18:12.206Z,100216.47
2022-12-08T00:20:38.963Z,100222.44
2022-12-08T00:23:05.807Z,100229.09
2022-12-08T00:25:35.884Z,100230.75
2022-12-08T00:28:02.751Z,100223.47
2022-12-08T00:30:29.577Z,100236.88
2022-12-08T00:32:56.329Z,100229.84
2022-12-08T00:35:23.109Z,100229.09
2022-12-08T00:37:49.878Z,100236.78
2022-12-08T00:40:16.672Z,100234.47
2022-12-08T00:42:43.418Z,100226.59
2022-12-08T00:45:10.727Z,100240.34
2022-12-08T00:47:37.545Z,100244.22
2022-12-08T00:50:04.950Z,100247.03
2022-12-08T00:52:31.878Z,100246.38
2022-12-08T00:54:58.667Z,100263.38
2022-12-08T00:57:25.448Z,100264.50
2022-12-08T00:59:52.230Z,100257.19
2022-12-08T01:02:19.026Z,100263.25
2022-12-08T01:04:45.863Z,100281.22
2022-12-08T01:07:12.639Z,100282.34
2022-12-08T01:09:39.427Z,100285.91
2022-12-08T01:12:06.739Z,100286.00
2022-12-08T01:14:33.577Z,100284.41
2022-12-08T01:17:00.459Z,100291.03
2022-12-08T01:19:27.310Z,100295.44
2022-12-08T01:21:54.075Z,100298.00
2022-12-08T01:24:21.430Z,100299.66
2022-12-08T01:26:48.996Z,100304.03
2022-12-08T01:29:15.959Z,100280.56
2022-12-08T01:31:42.828Z,100265.72
2022-12-08T01:34:10.329Z,100304.94
2022-12-08T01:36:37.346Z,100294.81
2022-12-08T01:39:06.175Z,100309.66
2022-12-08T01:41:33.768Z,100301.41
2022-12-08T01:44:24.049Z,100296.53
2022-12-08T01:46:50.816Z,100306.25
2022-12-08T01:49:20.499Z,100307.06
2022-12-08T01:51:54.128Z,100311.69
2022-12-08T01:54:21.019Z,100307.53
2022-12-08T01:57:08.050Z,100315.47
2022-12-08T01:59:36.498Z,100312.34
2022-12-08T02:02:03.593Z,100309.13
2022-12-08T02:04:30.519Z,100310.09
2022-12-08T02:06:57.269Z,100318.25
2022-12-08T02:09:24.020Z,100319.91
2022-12-08T02:11:50.808Z,100305.56
2022-12-08T02:14:17.598Z,100311.44
2022-12-08T02:16:50.159Z,100315.59
2022-12-08T02:19:38.285Z,100328.19
2022-12-08T02:22:22.240Z,100308.53
2022-12-08T02:25:12.896Z,100319.16
2022-12-08T02:28:04.292Z,100322.53
2022-12-08T02:30:43.688Z,100320.06
2022-12-08T02:33:24.948Z,100315.84
2022-12-08T02:36:15.279Z,100322.53
2022-12-08T02:38:52.609Z,100329.03
2022-12-08T02:41:21.461Z,100330.63
2022-12-08T02:43:49.418Z,100333.66
2022-12-08T02:46:21.716Z,100329.78
2022-12-08T02:48:49.898Z,100327.31
2022-12-08T02:51:16.648Z,100327.91
2022-12-08T02:53:44.659Z,100337.78
2022-12-08T02:56:20.558Z,100337.72
2022-12-08T02:59:24.718Z,100350.22
2022-12-08T03:02:29.062Z,100350.00
2022-12-08T03:05:08.016Z,100345.69
2022-12-08T03:07:48.840Z,100346.44
2022-12-08T03:10:35.839Z,100344.88
2022-12-08T03:13:36.267Z,100343.38
2022-12-08T03:16:03.381Z,100328.81
2022-12-08T03:18:31.329Z,100327.13
2022-12-08T03:20:58.098Z,100328.28
2022-12-08T03:23:24.847Z,100339.38
2022-12-08T03:25:58.610Z,100337.63
2022-12-08T03:28:25.367Z,100336.72
2022-12-08T03:30:53.610Z,100340.72
2022-12-08T03:33:27.010Z,100333.47
2022-12-08T03:35:53.817Z,100351.84
2022-12-08T03:38:20.625Z,100349.25
2022-12-08T03:41:10.097Z,100335.38
2022-12-08T03:43:36.910Z,100358.13
2022-12-08T03:46:03.699Z,100356.59
2022-12-08T03:48:30.548Z,100351.03
2022-12-08T03:50:57.359Z,100361.28
2022-12-08T03:53:24.142Z,100358.28
2022-12-08T03:55:50.918Z,100360.53
2022-12-08T03:58:17.671Z,100367.34
2022-12-08T04:00:44.890Z,100371.56
2022-12-08T04:03:11.702Z,100355.84
2022-12-08T04:05:38.514Z,100361.53
2022-12-08T04:08:05.476Z,100354.41
2022-12-08T04:10:32.264Z,100364.63
2022-12-08T04:12:59.012Z,100359.75
2022-12-08T04:15:25.739Z,100345.69
2022-12-08T04:17:52.530Z,100374.81
2022-12-08T04:20:19.338Z,100370.84
2022-12-08T04:22:46.122Z,100361.13
2022-12-08T04:25:13.277Z,100356.88
2022-12-08T04:27:40.025Z,100374.38
2022-12-08T04:30:07.814Z,100371.50
2022-12-08T04:32:34.696Z,100369.53
2022-12-08T04:35:01.501Z,100377.03
2022-12-08T04:37:28.658Z,100373.63
2022-12-08T04:39:55.459Z,100371.88
2022-12-08T04:42:22.269Z,100371.06
2022-12-08T04:44:49.028Z,100369.25
2022-12-08T04:47:15.813Z,100388.59
2022-12-08T04:49:42.624Z,100378.03
2022-12-08T04:52:09.401Z,100381.72
2022-12-08T04:54:36.209Z,100386.19
2022-12-08T04:57:02.956Z,100383.78
2022-12-08T04:59:29.838Z,100393.75
2022-12-08T05:01:56.871Z,100386.72
2022-12-08T05:04:23.768Z,100395.16
2022-12-08T05:06:50.484Z,100402.69
2022-12-08T05:09:17.280Z,100391.91
2022-12-08T05:11:48.786Z,100405.22
2022-12-08T05:14:16.366Z,100396.84
2022-12-08T05:16:43.534Z,100390.53
2022-12-08T05:19:10.369Z,100401.63
2022-12-08T05:21:37.196Z,100392.09
2022-12-08T05:24:04.238Z,100394.16
2022-12-08T05:26:31.040Z,100400.00
2022-12-08T05:28:57.805Z,100411.44
2022-12-08T05:31:24.774Z,100396.09
2022-12-08T05:33:51.884Z,100412.53
2022-12-08T05:36:19.148Z,100408.72
2022-12-08T05:38:46.130Z,100410.78
2022-12-08T05:41:17.627Z,100410.38
2022-12-08T05:43:44.504Z,100408.25
2022-12-08T05:46:11.365Z,100416.47
2022-12-08T05:48:38.257Z,100415.59
2022-12-08T05:51:05.300Z,100422.50
2022-12-08T05:53:32.071Z,100406.88
2022-12-08T05:55:58.869Z,100427.88
2022-12-08T05:58:25.648Z,100427.31
2022-12-08T06:00:52.516Z,100432.53
2022-12-08T06:03:19.965Z,100432.69
2022-12-08T06:05:47.062Z,100437.28
2022-12-08T06:08:13.973Z,100433.22
2022-12-08T06:10:41.571Z,100448.31
2022-12-08T06:13:08.437Z,100444.81
2022-12-08T06:15:36.110Z,100439.75
2022-12-08T06:18:02.976Z,100457.94
2022-12-08T06:20:29.758Z,100453.97
2022-12-08T06:22:56.750Z,100473.22
2022-12-08T06:25:23.569Z,100471.50
2022-12-08T06:27:50.453Z,100461.47
2022-12-08T06:30:17.448Z,100471.22
2022-12-08T06:32:44.277Z,100462.91
2022-12-08T06:35:11.073Z,100477.25
2022-12-08T06:37:37.850Z,100480.50
2022-12-08T06:40:05.318Z,100484.22
2022-12-08T06:42:50.969Z,100479.31
2022-12-08T06:45:18.028Z,100494.38
2022-12-08T06:47:44.864Z,100481.84
2022-12-08T06:50:12.349Z,100489.44
2022-12-08T06:52:49.275Z,100481.47
2022-12-08T06:55:50.701Z,100493.41
2022-12-08T06:58:09.675Z,100484.44
2022-12-08T07:00:36.470Z,100477.44
2022-12-08T07:03:03.227Z,100486.19
2022-12-08T07:05:30.070Z,100496.06
2022-12-08T07:07:56.903Z,100503.72
2022-12-08T07:10:23.812Z,100502.63
2022-12-08T07:12:50.618Z,100498.72
2022-12-08T07:15:17.521Z,100518.31
2022-12-08T07:17:44.337Z,100510.59
2022-12-08T07:20:11.317Z,100520.97
2022-12-08T07:22:38.057Z,100519.19
2022-12-08T07:25:05.219Z,100515.78
2022-12-08T07:27:31.959Z,100529.53
2022-12-08T07:29:58.729Z,100536.97
2022-12-08T07:32:25.531Z,100533.03
2022-12-08T07:34:52.448Z,100542.03
2022-12-08T07:37:19.224Z,100527.31
2022-12-08T07:39:46.629Z,100537.34
2022-12-08T07:42:13.410Z,100547.13
2022-12-08T07:44:40.139Z,100539.97
2022-12-08T07:47:06.931Z,100542.66
2022-12-08T07:49:33.719Z,100533.47
2022-12-08T07:52:00.451Z,100549.59
2022-12-08T07:54:28.095Z,100553.97
2022-12-08T07:56:57.550Z,100562.44
2022-12-08T07:59:24.451Z,100562.38
2022-12-08T08:02:13.142Z,100555.41
2022-12-08T08:04:38.286Z,100568.78
2022-12-08T08:07:05.118Z,100556.25
2022-12-08T08:09:31.871Z,100551.66
2022-12-08T08:12:29.009Z,100565.16
2022-12-08T08:14:45.367Z,100558.50
2022-12-08T08:17:12.259Z,100560.00
2022-12-08T08:19:39.148Z,100552.25
2022-12-08T08:22:05.923Z,100561.94
2022-12-08T08:24:32.727Z,100533.22
2022-12-08T08:26:59.500Z,100553.81
2022-12-08T08:29:26.310Z,100544.09
2022-12-08T08:31:53.111Z,100550.00
2022-12-08T08:34:19.880Z,100558.84
2022-12-08T08:36:46.709Z,100543.16
2022-12-08T08:39:13.826Z,100567.00
2022-12-08T08:41:41.437Z,100569.50
2022-12-08T08:44:08.211Z,100584.31
2022-12-08T08:46:35.075Z,100593.59
2022-12-08T08:49:01.978Z,100591.44
2022-12-08T08:51:28.824Z,100597.91
2022-12-08T08:53:55.601Z,100607.78
2022-12-08T08:56:22.503Z,100594.78
2022-12-08T08:58:49.668Z,100603.00
2022-12-08T09:01:25.122Z,100616.88
2022-12-08T09:03:52.091Z,100622.53
2022-12-08T09:06:19.209Z,100613.03
2022-12-08T09:08:46.745Z,100611.69
2022-12-08T09:11:13.794Z,100603.13
2022-12-08T09:13:40.768Z,100613.88
2022-12-08T09:16:08.676Z,100606.81
2022-12-08T09:18:35.726Z,100613.09
2022-12-08T09:21:23.136Z,100609.97
2022-12-08T09:23:54.392Z,100606.84
2022-12-08T09:26:22.676Z,100598.66
2022-12-08T09:28:50.928Z,100600.84
2022-12-08T09:31:18.855Z,100600.59
2022-12-08T09:33:45.807Z,100595.78
2022-12-08T09:36:12.778Z,100597.63
2022-12-08T09:38:39.911Z,100594.38
2022-12-08T09:41:48.274Z,100574.88
2022-12-08T09:44:40.252Z,100582.25
2022-12-08T09:47:36.564Z,100574.69
2022-12-08T09:50:07.794Z,100568.38
2022-12-08T09:52:38.769Z,100577.09
2022-12-08T09:55:21.190Z,100562.59
2022-12-08T09:57:56.246Z,100556.69
2022-12-08T10:00:23.647Z,100557.72
2022-12-08T10:02:50.478Z,100539.28
2022-12-08T10:05:17.504Z,100559.00
2022-12-08T10:07:49.500Z,100558.69
2022-12-08T10:10:26.927Z,100553.03
2022-12-08T10:12:59.828Z,100560.69
2022-12-08T10:16:04.148Z,100562.28
2022-12-08T10:18:32.250Z,100563.91
2022-12-08T10:21:20.616Z,100562.28
2022-12-08T10:23:55.702Z,100559.25
2022-12-08T10:26:22.648Z,100552.38
2022-12-08T10:28:49.543Z,100559.06
2022-12-08T10:31:20.656Z,100563.47
2022-12-08T10:33:48.358Z,100554.34
2022-12-08T10:36:15.112Z,100556.22
2022-12-08T10:38:41.935Z,100553.00
2022-12-08T10:41:12.867Z,100549.59
2022-12-08T10:43:50.028Z,100544.50
2022-12-08T10:46:19.860Z,100545.13
2022-12-08T10:48:52.616Z,100541.22
2022-12-08T10:51:23.206Z,100533.28
2022-12-08T10:53:50.035Z,100526.91
2022-12-08T10:56:17.237Z,100525.66
2022-12-08T10:58:47.722Z,100533.84
2022-12-08T11:01:21.783Z,100531.41
2022-12-08T11:03:54.406Z,100525.13
2022-12-08T11:06:42.318Z,100540.38
2022-12-08T11:09:18.618Z,100540.66
2022-12-08T11:11:52.685Z,100537.94
2022-12-08T11:14:26.714Z,100523.75
2022-12-08T11:16:55.501Z,100537.81
2022-12-08T11:19:23.645Z,100496.06
2022-12-08T11:21:50.465Z,100509.34
2022-12-08T11:24:33.421Z,100529.25
2022-12-08T11:27:04.263Z,100523.03
2022-12-08T11:29:32.407Z,100513.72
2022-12-08T11:32:02.981Z,100528.03
2022-12-08T11:34:36.026Z,100481.63
2022-12-08T11:37:05.219Z,100507.53
2022-12-08T11:39:33.910Z,100515.59
2022-12-08T11:42:00.750Z,100503.16
2022-12-08T11:44:47.554Z,100516.09
2022-12-08T11:47:20.787Z,100511.75
2022-12-08T11:52:35.869Z,100509.63
2022-12-08T11:55:03.685Z,100512.97
2022-12-08T11:57:30.465Z,100502.69
2022-12-08T11:59:57.916Z,100499.97
2022-12-08T12:02:30.032Z,100505.69
2022-12-08T12:05:33.678Z,100511.75
2022-12-08T12:08:45.535Z,100504.94
2022-12-08T12:11:52.423Z,100509.81
2022-12-08T12:14:50.345Z,100505.19
2022-12-08T12:17:38.484Z,100507.38
2022-12-08T12:20:17.028Z,100500.16
2022-12-08T12:22:44.918Z,100482.25
2022-12-08T12:25:19.463Z,100494.88
2022-12-08T12:27:46.637Z,100476.56
2022-12-08T12:30:26.989Z,100488.59
2022-12-08T12:32:58.590Z,100476.78
2022-12-08T12:35:32.454Z,100468.50
2022-12-08T12:38:02.747Z,100473.19
2022-12-08T12:40:41.117Z,100474.63
2022-12-08T12:43:10.917Z,100482.13
2022-12-08T12:45:43.543Z,100474.13
2022-12-08T12:48:10.245Z,100473.81
2022-12-08T12:50:47.222Z,100473.19
2022-12-08T12:53:16.906Z,100475.88
2022-12-08T12:55:46.638Z,100474.31
2022-12-08T12:58:28.479Z,100474.50
2022-12-08T13:01:13.475Z,100473.88
2022-12-08T13:03:48.298Z,100466.50
2022-12-08T13:06:15.368Z,100464.22
2022-12-08T13:08:50.282Z,100435.72
2022-12-08T13:11:17.036Z,100471.53
2022-12-08T13:14:01.325Z,100452.75
2022-12-08T13:16:28.501Z,100472.03
2022-12-08T13:18:59.415Z,100464.56
2022-12-08T13:21:32.559Z,100469.09
2022-12-08T13:24:14.459Z,100476.94
2022-12-08T13:26:51.395Z,100474.66
2022-12-08T13:29:25.027Z,100470.16
2022-12-08T13:32:01.374Z,100480.94
2022-12-08T13:34:49.505Z,100484.59
2022-12-08T13:37:21.569Z,100488.22
2022-12-08T13:40:15.405Z,100478.09
2022-12-08T13:42:48.424Z,100472.75
2022-12-08T13:45:52.908Z,100472.00
2022-12-08T13:55:58.703Z,100449.09
2022-12-08T13:57:29.039Z,100463.28
2022-12-08T14:00:01.421Z,100477.66
2022-12-08T14:02:33.269Z,100464.75
2022-12-08T14:07:48.431Z,100474.16
2022-12-08T14:10:24.265Z,100478.19
2022-12-08T14:13:11.518Z,100474.78
2022-12-08T14:15:39.733Z,100470.56
2022-12-08T14:18:07.086Z,100475.09
2022-12-08T14:20:51.756Z,100451.03
2022-12-08T14:23:21.479Z,100454.44
2022-12-08T14:25:48.428Z,100466.88
2022-12-08T14:28:15.166Z,100459.31
2022-12-08T14:30:41.961Z,100464.28
2022-12-08T14:33:13.388Z,100460.88
2022-12-08T14:35:40.175Z,100447.34
2022-12-08T14:38:15.183Z,100438.22
2022-12-08T14:40:43.889Z,100438.31
2022-12-08T14:43:10.597Z,100440.91
2022-12-08T14:45:43.130Z,100452.22
2022-12-08T14:48:32.078Z,100455.25
2022-12-08T14:51:23.809Z,100445.66
2022-12-08T14:53:55.178Z,100450.75
2022-12-08T14:56:23.015Z,100445.00
2022-12-08T14:59:06.495Z,100451.66
2022-12-08T15:01:33.479Z,100439.31
2022-12-08T15:04:19.069Z,100440.50
2022-12-08T15:06:53.788Z,100444.75
2022-12-08T15:09:35.350Z,100450.63
2022-12-08T15:12:02.872Z,100442.25
2022-12-08T15:14:37.108Z,100444.47
2022-12-08T15:17:04.436Z,100457.28
2022-12-08T15:19:32.701Z,100446.94
2022-12-08T15:22:20.847Z,100450.28
2022-12-08T15:24:47.653Z,100439.44
2022-12-08T15:27:21.317Z,100440.78
2022-12-08T15:29:48.238Z,100438.22
2022-12-08T15:32:20.042Z,100441.63
2022-12-08T15:34:47.057Z,100434.69
2022-12-08T15:37:26.678Z,100423.84
2022-12-08T15:39:53.588Z,100413.81
2022-12-08T15:42:20.362Z,100427.81
2022-12-08T15:44:47.205Z,100420.97
2022-12-08T15:47:19.479Z,100411.03
2022-12-08T15:49:46.981Z,100424.31
2022-12-08T15:52:20.393Z,100420.06
2022-12-08T15:54:47.273Z,100396.94
2022-12-08T15:58:30.856Z,100416.63
2022-12-08T16:00:51.259Z,100419.97
2022-12-08T16:09:16.087Z,100388.44
2022-12-08T16:12:10.126Z,100410.75
2022-12-08T16:17:24.947Z,100405.31
2022-12-08T16:19:51.797Z,100402.38
2022-12-08T16:25:22.150Z,100402.66
2022-12-08T16:28:36.897Z,100409.38
2022-12-08T16:30:41.300Z,100395.00
2022-12-08T16:33:08.216Z,100391.59
2022-12-08T16:35:35.115Z,100399.03
2022-12-08T16:38:02.050Z,100363.13
2022-12-08T16:40:28.890Z,100391.13
2022-12-08T16:42:55.791Z,100396.28
2022-12-08T16:45:26.755Z,100394.53
2022-12-08T16:47:55.216Z,100387.19
2022-12-08T16:50:26.841Z,100393.63
2022-12-08T16:52:58.057Z,100388.34
2022-12-08T16:55:24.992Z,100375.44
2022-12-08T16:57:51.825Z,100378.22
2022-12-08T17:00:23.202Z,100370.59
2022-12-08T17:02:50.269Z,100380.59
2022-12-08T17:05:18.471Z,100381.34
2022-12-08T17:07:46.697Z,100372.22
2022-12-08T17:10:15.671Z,100382.91
2022-12-08T17:12:42.669Z,100381.44
2022-12-08T17:15:11.948Z,100382.00
2022-12-08T17:17:39.650Z,100339.72
2022-12-08T17:20:08.733Z,100381.88
2022-12-08T17:22:35.988Z,100382.81
2022-12-08T17:25:03.186Z,100386.13
2022-12-08T17:27:30.175Z,100386.13
2022-12-08T17:29:57.150Z,100393.03
2022-12-08T17:32:24.552Z,100365.59
2022-12-08T17:34:51.456Z,100358.78
2022-12-08T17:37:18.345Z,100384.66
2022-12-08T17:39:45.261Z,100381.81
2022-12-08T17:42:12.355Z,100384.41
2022-12-08T17:44:39.206Z,100372.69
2022-12-08T17:47:06.048Z,100375.16
2022-12-08T17:49:33.999Z,100376.00
2022-12-08T17:52:04.881Z,100382.53
2022-12-08T17:54:31.775Z,100382.53
2022-12-08T17:56:58.872Z,100385.94
2022-12-08T17:59:27.216Z,100385.22
2022-12-08T18:01:54.594Z,100387.63
2022-12-08T18:04:21.693Z,100390.28
2022-12-08T18:06:48.566Z,100381.72
2022-12-08T18:09:15.570Z,100378.78
2022-12-08T18:11:42.615Z,100386.22
2022-12-08T18:14:10.208Z,100387.69
2022-12-08T18:16:38.600Z,100399.66
2022-12-08T18:19:06.096Z,100400.53
2022-12-08T18:21:33.008Z,100385.66
2022-12-08T18:23:59.908Z,100400.53
2022-12-08T18:26:26.748Z,100394.91
2022-12-08T18:28:53.579Z,100400.06
2022-12-08T18:31:21.195Z,100395.09
2022-12-08T18:33:48.396Z,100417.00
2022-12-08T18:36:17.277Z,100409.63
2022-12-08T18:38:44.318Z,100426.41
2022-12-08T18:41:23.529Z,100422.19
2022-12-08T18:43:50.711Z,100418.84
2022-12-08T18:46:17.600Z,100408.00
2022-12-08T18:48:46.481Z,100415.25
2022-12-08T18:51:14.433Z,100421.34
2022-12-08T18:53:41.562Z,100412.31
2022-12-08T18:56:08.788Z,100409.63
2022-12-08T18:58:35.736Z,100408.25
2022-12-08T19:01:02.686Z,100411.56
2022-12-08T19:03:29.600Z,100418.31
2022-12-08T19:06:04.018Z,100408.25
2022-12-08T19:08:31.676Z,100414.06
2022-12-08T19:10:58.978Z,100416.63
2022-12-08T19:13:25.952Z,100418.31
2022-12-08T19:15:52.875Z,100426.69
2022-12-08T19:18:19.816Z,100411.75
2022-12-08T19:20:46.597Z,100425.03
2022-12-08T19:23:14.059Z,100429.34
2022-12-08T19:25:40.886Z,100433.03
2022-12-08T19:28:07.829Z,100417.94
2022-12-08T19:30:34.746Z,100434.06
2022-12-08T19:33:01.627Z,100428.19
2022-12-08T19:35:28.525Z,100434.97
2022-12-08T19:37:55.324Z,100449.94
2022-12-08T19:40:40.750Z,100453.44
2022-12-08T19:43:40.404Z,100459.31
2022-12-08T19:46:07.504Z,100457.84
2022-12-08T19:48:34.384Z,100448.63
2022-12-08T19:51:01.231Z,100460.25
2022-12-08T19:53:28.174Z,100464.59
2022-12-08T19:55:55.015Z,100455.44
2022-12-08T19:58:22.001Z,100464.75
2022-12-08T20:00:48.931Z,100469.00
2022-12-08T20:03:17.043Z,100469.09
2022-12-08T20:05:44.316Z,100464.38
2022-12-08T20:08:11.232Z,100458.66
2022-12-08T20:10:39.959Z,100470.63
2022-12-08T20:13:25.691Z,100460.50
2022-12-08T20:15:52.626Z,100464.00
2022-12-08T20:18:19.772Z,100475.09
2022-12-08T20:20:46.715Z,100470.94
2022-12-08T20:23:13.759Z,100473.78
2022-12-08T20:25:41.429Z,100468.97
2022-12-08T20:28:08.447Z,100474.31
2022-12-08T20:30:35.537Z,100453.00
2022-12-08T20:33:02.386Z,100475.13
2022-12-08T20:35:29.242Z,100481.47
2022-12-08T20:37:56.158Z,100472.78
2022-12-08T20:40:23.133Z,100483.34
2022-12-08T20:42:50.047Z,100483.38
2022-12-08T20:45:16.973Z,100487.22
2022-12-08T20:47:43.760Z,100478.03
2022-12-08T20:50:11.465Z,100494.47
2022-12-08T20:52:38.621Z,100514.50
2022-12-08T20:55:06.565Z,100505.63
2022-12-08T20:57:33.773Z,100484.84
2022-12-08T21:00:00.806Z,100528.03
2022-12-08T21:02:28.043Z,100476.53
2022-12-08T21:04:55.258Z,100529.38
2022-12-08T21:07:22.236Z,100523.03
2022-12-08T21:09:49.385Z,100539.00
2022-12-08T21:12:16.244Z,100532.56
2022-12-08T21:14:43.836Z,100546.78
2022-12-08T21:17:11.034Z,100554.94
2022-12-08T21:19:38.283Z,100546.47
2022-12-08T21:22:05.358Z,100562.19
2022-12-08T21:24:34.635Z,100565.31
2022-12-08T21:27:01.857Z,100566.03
2022-12-08T21:29:28.911Z,100560.94
2022-12-08T21:31:57.493Z,100558.38
2022-12-08T21:34:25.790Z,100582.31
2022-12-08T21:36:53.271Z,100575.41
2022-12-08T21:39:20.450Z,100573.44
2022-12-08T21:42:05.632Z,100565.78
2022-12-08T21:44:35.686Z,100569.16
2022-12-08T21:47:06.052Z,100574.59
2022-12-08T21:49:33.097Z,100577.09
2022-12-08T21:51:59.929Z,100546.50
2022-12-08T21:54:26.868Z,100584.56
2022-12-08T21:56:53.817Z,100569.28
2022-12-08T21:59:21.009Z,100585.22
2022-12-08T22:01:48.341Z,100570.94
2022-12-08T22:04:18.943Z,100582.72
2022-12-08T22:06:46.008Z,100571.94
2022-12-08T22:09:15.444Z,100573.13
2022-12-08T22:11:43.219Z,100582.50
2022-12-08T22:14:14.434Z,100587.19
2022-12-08T22:16:42.918Z,100587.78
2022-12-08T22:19:10.205Z,100581.19
2022-12-08T22:21:38.505Z,100597.47
2022-12-08T22:24:06.373Z,100600.78
2022-12-08T22:26:33.602Z,100605.72
2022-12-08T22:29:00.615Z,100588.63
2022-12-08T22:31:28.460Z,100589.09
2022-12-08T22:33:56.011Z,100591.13
2022-12-08T22:36:24.563Z,100595.69
2022-12-08T22:38:51.930Z,100605.97
2022-12-08T22:41:19.267Z,100608.81
2022-12-08T22:43:46.828Z,100618.28
2022-12-08T22:46:22.327Z,100614.25
2022-12-08T22:48:49.652Z,100613.53
2022-12-08T22:51:16.678Z,100621.28
2022-12-08T22:53:43.720Z,100618.94
2022-12-08T22:56:11.806Z,100624.84
2022-12-08T22:58:39.149Z,100625.69
2022-12-08T23:01:06.344Z,100626.81
2022-12-08T23:03:34.000Z,100630.06
2022-12-08T23:06:01.332Z,100633.59
2022-12-08T23:08:30.720Z,100629.47
2022-12-08T23:10:57.645Z,100626.81
2022-12-08T23:13:24.532Z,100625.16
2022-12-08T23:15:51.843Z,100619.63
2022-12-08T23:18:21.647Z,100632.88
2022-12-08T23:20:48.674Z,100623.09
2022-12-08T23:23:15.624Z,100628.16
2022-12-08T23:25:43.255Z,100630.66
2022-12-08T23:28:10.712Z,100623.97
2022-12-08T23:30:40.249Z,100646.16
2022-12-08T23:33:07.322Z,100637.88
2022-12-08T23:35:34.498Z,100644.53
2022-12-08T23:38:01.631Z,100636.28
2022-12-08T23:40:28.859Z,100629.72
2022-12-08T23:42:56.014Z,100644.34
2022-12-08T23:45:23.045Z,100632.69
2022-12-08T23:47:50.034Z,100629.72
2022-12-08T23:50:17.014Z,100636.59
2022-12-08T23:52:44.008Z,100645.56
2022-12-08T23:55:11.330Z,100658.47
2022-12-08T23:57:38.771Z,100657.03
